Terminal Aerodrome Forecast
Issued by NWS

Home | Current Version | Previous Version | Text Only | Print | Product List | Glossary On
Versions: 1 2 3 4 5 6 7 8 9 10 11 12 13 14 15 16 17 18 19 20 21 22 23 24 25 26
000
FTUS45 KGJT 140101 AAA
TAFTEX
TAF AMD
KTEX 140101Z 1401/1424 27003KT P6SM SCT080
     FM140300 23008KT P6SM BKN080 BKN130
     FM140700 VRB03KT P6SM VCSH BKN060 BKN090
     FM141700 02010KT P6SM VCSH FEW045 SCT150=

USA.gov is the U.S. government's official web portal to all federal, state and local government web resources and services.